Time;durP1;ratioP1;P1;durP2;ratioP2;P2;SDS_P1;SDS_P2;PMS_P1;PMS_P2;Temp;Humidity;BMP_temperature;BMP_pressure;BME280_temperature;BME280_humidity;BME280_pressure;Samples;Min_cycle;Max_cycle;Signal;HPM_P1;HPM_P2
2022/07/28 00:01:06;;;;;;;5.45;2.72;;;;;;;;;;5035321;28;20044;-64
2022/07/28 00:03:32;;;;;;;6.50;2.58;;;;;;;;;;5052902;28;20557;-64
2022/07/28 00:05:59;;;;;;;5.63;2.72;;;;;;;;;;5035166;28;20429;-64
2022/07/28 00:08:24;;;;;;;7.03;2.95;;;12.50;99.90;;;;;;5053747;28;20076;-64
2022/07/28 00:10:50;;;;;;;6.78;3.53;;;12.40;99.90;;;;;;5019150;28;20118;-64
2022/07/28 00:13:15;;;;;;;4.82;2.15;;;12.30;99.90;;;;;;5052963;28;20036;-64
2022/07/28 00:15:41;;;;;;;8.18;3.20;;;12.30;99.90;;;;;;5053518;28;20460;-64
2022/07/28 00:18:07;;;;;;;5.95;2.50;;;12.30;99.90;;;;;;5035530;28;20044;-64
2022/07/28 00:20:32;;;;;;;6.97;2.97;;;12.30;99.90;;;;;;5052249;28;20056;-64
2022/07/28 00:22:58;;;;;;;7.28;2.92;;;12.30;99.90;;;;;;5053290;28;20094;-64
2022/07/28 00:25:23;;;;;;;6.18;2.45;;;12.10;99.90;;;;;;5053242;28;20175;-64
2022/07/28 00:27:50;;;;;;;5.95;2.80;;;;;;;;;;5034557;28;20037;-64
2022/07/28 00:30:16;;;;;;;8.82;3.47;;;;;;;;;;5053478;28;20444;-64
2022/07/28 00:32:42;;;;;;;4.75;2.47;;;;;;;;;;5035395;28;20133;-64
2022/07/28 00:35:08;;;;;;;5.97;3.05;;;;;;;;;;5034343;28;20055;-64
2022/07/28 00:37:34;;;;;;;5.15;2.30;;;;;;;;;;5035153;28;20494;-64
2022/07/28 00:40:00;;;;;;;6.45;2.70;;;;;;;;;;5052759;28;20555;-64
2022/07/28 00:42:26;;;;;;;5.03;2.17;;;;;;;;;;5017605;28;20054;-64
2022/07/28 00:44:52;;;;;;;6.38;2.60;;;;;;;;;;5034957;28;20049;-64
2022/07/28 00:47:18;;;;;;;4.82;2.30;;;;;;;;;;5035253;28;20037;-64
2022/07/28 00:49:45;;;;;;;5.85;2.47;;;;;;;;;;5051653;28;20047;-64
2022/07/28 00:52:11;;;;;;;6.93;3.08;;;12.40;99.90;;;;;;5035463;28;20048;-64
2022/07/28 00:54:37;;;;;;;5.43;2.35;;;12.90;99.90;;;;;;5034744;28;20051;-64
2022/07/28 00:57:04;;;;;;;4.38;2.22;;;;;;;;;;5034132;28;20433;-64
2022/07/28 00:59:30;;;;;;;9.15;2.60;;;;;;;;;;5034830;28;20044;-64
2022/07/28 01:01:57;;;;;;;5.15;2.40;;;12.40;99.90;;;;;;5052588;28;20037;-64
2022/07/28 01:04:23;;;;;;;5.80;2.60;;;;;;;;;;5051790;28;20527;-64
2022/07/28 01:07:01;;;;;;;5.10;2.25;;;;;;;;;;5052347;28;20043;-64
2022/07/28 01:09:37;;;;;;;7.13;2.70;;;;;;;;;;5051810;28;20481;-64
2022/07/28 01:12:27;;;;;;;6.00;3.15;;;;;;;;;;5052604;28;20037;-64
2022/07/28 01:15:13;;;;;;;5.18;2.85;;;;;;;;;;5034158;28;20037;-64
2022/07/28 01:17:43;;;;;;;6.40;2.83;;;;;;;;;;5051282;28;20440;-64
2022/07/28 01:20:09;;;;;;;7.53;3.17;;;;;;;;;;5052226;28;20444;-64
2022/07/28 01:22:38;;;;;;;7.18;2.60;;;;;;;;;;5052251;28;20072;-64
2022/07/28 01:25:33;;;;;;;7.15;2.80;;;12.50;99.90;;;;;;5033465;28;20041;-64
2022/07/28 01:28:18;;;;;;;7.03;2.55;;;;;;;;;;5034047;28;20128;-64
2022/07/28 01:30:52;;;;;;;6.55;3.33;;;12.40;99.90;;;;;;5051132;28;20468;-64
2022/07/28 01:33:19;;;;;;;6.63;2.40;;;;;;;;;;5018454;28;20426;-64
2022/07/28 01:35:56;;;;;;;4.80;2.78;;;12.30;99.90;;;;;;5051632;28;20395;-64
2022/07/28 01:38:25;;;;;;;6.63;3.25;;;12.60;99.90;;;;;;5033373;28;20120;-64
2022/07/28 01:40:52;;;;;;;6.63;3.00;;;;;;;;;;5052020;28;20044;-64
2022/07/28 01:43:22;;;;;;;6.63;2.80;;;12.40;99.90;;;;;;5034359;28;20052;-64
2022/07/28 01:45:48;;;;;;;5.70;3.28;;;13.30;99.90;;;;;;5033330;28;20033;-64
2022/07/28 01:48:15;;;;;;;6.00;2.47;;;12.50;99.90;;;;;;5052182;28;20041;-64
2022/07/28 01:50:42;;;;;;;8.02;3.08;;;12.60;99.90;;;;;;5034246;28;20037;-64
2022/07/28 01:53:12;;;;;;;6.30;3.10;;;;;;;;;;5051285;28;20067;-64
2022/07/28 01:55:39;;;;;;;6.38;3.25;;;;;;;;;;5051854;28;20075;-64
2022/07/28 01:58:17;;;;;;;8.07;2.95;;;12.20;99.90;;;;;;5033820;28;20064;-64
2022/07/28 02:00:46;;;;;;;5.30;2.53;;;12.50;99.90;;;;;;5050723;28;20060;-64
2022/07/28 02:03:13;;;;;;;5.07;2.63;;;12.30;99.90;;;;;;5017746;28;20102;-64
2022/07/28 02:05:41;;;;;;;4.95;2.90;;;12.60;99.90;;;;;;5033194;28;20045;-64
2022/07/28 02:08:07;;;;;;;6.43;2.72;;;12.80;99.90;;;;;;5033654;28;20108;-64
2022/07/28 02:10:34;;;;;;;7.30;3.08;;;;;;;;;;5034198;28;20128;-64
2022/07/28 02:13:01;;;;;;;4.95;2.47;;;12.20;99.90;;;;;;5050732;28;20056;-64
2022/07/28 02:15:29;;;;;;;5.40;2.40;;;;;;;;;;5051529;28;20045;-64
2022/07/28 02:17:55;;;;;;;5.55;2.85;;;;;;;;;;5051602;28;20048;-64
2022/07/28 02:20:21;;;;;;;7.20;2.78;;;12.20;99.90;;;;;;5050958;28;20053;-64
2022/07/28 02:22:48;;;;;;;9.05;3.10;;;12.20;99.90;;;;;;5051385;28;20110;-64
2022/07/28 02:25:15;;;;;;;5.13;2.35;;;12.10;99.90;;;;;;5051725;28;20103;-64
2022/07/28 02:27:49;;;;;;;5.65;2.58;;;12.10;99.90;;;;;;5052369;28;20032;-64
2022/07/28 02:30:17;;;;;;;8.00;3.50;;;12.10;99.90;;;;;;5037831;28;20037;-64
2022/07/28 02:32:49;;;;;;;4.68;2.33;;;12.10;99.90;;;;;;5055081;28;20120;-64
2022/07/28 02:35:37;;;;;;;7.68;3.08;;;12.10;99.90;;;;;;5037373;28;20110;-64
2022/07/28 02:38:11;;;;;;;5.82;2.45;;;12.10;99.90;;;;;;5037234;28;20501;-64
2022/07/28 02:40:39;;;;;;;9.57;3.10;;;12.10;99.90;;;;;;5036943;28;20397;-64
2022/07/28 02:43:14;;;;;;;5.63;2.40;;;12.10;99.90;;;;;;5037458;28;20128;-64
2022/07/28 02:45:44;;;;;;;4.43;2.42;;;12.10;99.90;;;;;;5038079;28;20044;-64
2022/07/28 02:48:14;;;;;;;5.63;2.58;;;12.00;99.90;;;;;;5054595;28;20094;-64
2022/07/28 02:50:41;;;;;;;5.70;2.53;;;11.90;99.90;;;;;;5037123;28;20036;-64
2022/07/28 02:53:08;;;;;;;5.65;2.45;;;12.00;99.90;;;;;;5054877;28;20481;-64
2022/07/28 02:55:35;;;;;;;6.88;2.60;;;12.00;99.90;;;;;;5054215;28;20041;-64
2022/07/28 02:58:03;;;;;;;5.50;2.28;;;12.00;99.90;;;;;;5055031;28;20044;-64
2022/07/28 03:00:29;;;;;;;6.93;2.88;;;;;;;;;;5037156;28;20056;-64
2022/07/28 03:02:56;;;;;;;6.03;3.08;;;;;;;;;;5035995;28;20048;-64
2022/07/28 03:05:22;;;;;;;5.53;2.58;;;;;;;;;;5054757;28;20062;-64
2022/07/28 03:07:51;;;;;;;5.00;2.45;;;;;;;;;;5054876;28;20460;-64
2022/07/28 03:10:24;;;;;;;5.32;2.50;;;;;;;;;;5036278;28;20185;-64
2022/07/28 03:12:51;;;;;;;10.55;3.13;;;;;;;;;;5037031;28;20106;-64
2022/07/28 03:15:17;;;;;;;5.38;2.22;;;;;;;;;;5036961;28;20091;-64
2022/07/28 03:17:43;;;;;;;6.13;2.75;;;;;;;;;;5053514;28;20044;-64
2022/07/28 03:20:10;;;;;;;5.53;2.65;;;;;;;;;;5036640;28;20057;-64
2022/07/28 03:22:36;;;;;;;5.32;2.40;;;;;;;;;;5036484;28;20080;-64
2022/07/28 03:25:05;;;;;;;4.82;2.40;;;;;;;;;;5053685;28;20037;-64
2022/07/28 03:27:38;;;;;;;8.55;2.40;;;12.00;99.90;;;;;;5036574;28;20041;-64
2022/07/28 03:30:08;;;;;;;5.00;2.55;;;11.90;99.90;;;;;;5053629;28;20469;-64
2022/07/28 03:32:39;;;;;;;6.07;2.28;;;11.80;99.90;;;;;;5054494;28;20063;-64
2022/07/28 03:35:05;;;;;;;4.85;2.58;;;11.80;99.90;;;;;;5054251;28;20049;-64
2022/07/28 03:37:38;;;;;;;6.53;2.28;;;11.80;99.90;;;;;;5053555;28;20112;-64
2022/07/28 03:40:08;;;;;;;4.72;2.40;;;11.70;99.90;;;;;;5035443;28;20458;-63
2022/07/28 03:42:35;;;;;;;4.50;2.30;;;11.60;99.90;;;;;;5054120;28;20140;-64
2022/07/28 03:45:01;;;;;;;5.43;2.75;;;11.60;99.90;;;;;;5053531;28;20090;-64
2022/07/28 03:47:27;;;;;;;6.15;2.63;;;11.60;99.90;;;;;;5053910;28;20037;-64
2022/07/28 03:49:52;;;;;;;5.35;2.88;;;11.40;99.90;;;;;;5054016;28;20025;-64
2022/07/28 03:52:19;;;;;;;4.97;1.90;;;;;;;;;;5053330;28;20478;-64
2022/07/28 03:54:45;;;;;;;5.18;2.92;;;;;;;;;;5035835;28;20049;-64
2022/07/28 03:57:11;;;;;;;5.70;2.63;;;;;;;;;;5020043;28;20393;-64
2022/07/28 03:59:37;;;;;;;4.57;2.13;;;;;;;;;;5035137;28;20056;-64
2022/07/28 04:02:03;;;;;;;5.40;2.30;;;;;;;;;;5053623;28;20075;-64
2022/07/28 04:04:29;;;;;;;4.97;2.28;;;;;;;;;;5053446;28;20393;-64
2022/07/28 04:06:55;;;;;;;5.43;2.50;;;;;;;;;;5052943;28;20098;-64
2022/07/28 04:09:22;;;;;;;5.85;2.80;;;;;;;;;;5035962;28;20486;-64
2022/07/28 04:11:48;;;;;;;4.50;2.08;;;;;;;;;;5053425;28;20116;-64
2022/07/28 04:14:16;;;;;;;6.75;2.28;;;;;;;;;;5052902;28;20051;-64
2022/07/28 04:16:42;;;;;;;4.50;2.53;;;;;;;;;;5035473;28;20510;-64
2022/07/28 04:19:08;;;;;;;4.40;2.13;;;;;;;;;;5034769;28;20517;-64
2022/07/28 04:21:34;;;;;;;5.15;2.83;;;;;;;;;;5053113;28;20053;-64
2022/07/28 04:24:00;;;;;;;6.50;2.90;;;;;;;;;;5035463;28;20397;-64
2022/07/28 04:26:26;;;;;;;12.20;2.60;;;;;;;;;;5034577;28;20513;-64
2022/07/28 04:28:52;;;;;;;7.50;2.75;;;;;;;;;;5035352;28;20048;-64
2022/07/28 04:31:18;;;;;;;5.18;2.05;;;;;;;;;;5053479;28;20041;-64
2022/07/28 04:33:45;;;;;;;5.43;2.55;;;;;;;;;;5034132;28;20049;-64
2022/07/28 04:36:11;;;;;;;4.72;2.42;;;;;;;;;;5053433;28;20040;-64
2022/07/28 04:38:38;;;;;;;5.35;2.00;;;;;;;;;;5035047;28;20049;-64
2022/07/28 04:41:04;;;;;;;7.65;2.20;;;;;;;;;;5034451;28;20049;-64
2022/07/28 04:43:30;;;;;;;5.13;2.20;;;;;;;;;;5053048;28;20367;-64
2022/07/28 04:45:56;;;;;;;9.40;2.92;;;;;;;;;;5034926;28;20575;-64
2022/07/28 04:48:23;;;;;;;7.18;3.05;;;;;;;;;;5052200;28;20481;-64
2022/07/28 04:50:50;;;;;;;6.70;3.15;;;;;;;;;;5052609;28;20064;-64
2022/07/28 04:53:17;;;;;;;5.20;2.53;;;;;;;;;;5053012;28;20055;-64
2022/07/28 04:55:43;;;;;;;5.88;2.63;;;;;;;;;;5033862;28;20079;-64
2022/07/28 04:58:11;;;;;;;5.97;2.60;;;;;;;;;;5035114;28;20078;-64
2022/07/28 05:00:37;;;;;;;7.15;3.03;;;;;;;;;;5052706;28;20045;-64
2022/07/28 05:03:04;;;;;;;10.27;3.42;;;;;;;;;;5051824;28;20056;-64
2022/07/28 05:05:30;;;;;;;5.82;2.65;;;;;;;;;;5052489;28;20047;-64
2022/07/28 05:07:56;;;;;;;7.30;2.42;;;;;;;;;;5034869;28;20465;-64
2022/07/28 05:10:22;;;;;;;5.55;2.80;;;;;;;;;;5051591;28;20397;-64
2022/07/28 05:12:49;;;;;;;8.77;3.25;;;;;;;;;;5052546;28;20448;-64
2022/07/28 05:15:15;;;;;;;5.28;2.47;;;;;;;;;;5052613;28;20135;-64
2022/07/28 05:17:41;;;;;;;5.07;2.60;;;;;;;;;;5051590;28;20036;-64
2022/07/28 05:20:07;;;;;;;4.60;2.38;;;;;;;;;;5052124;28;20089;-64
2022/07/28 05:22:42;;;;;;;6.13;2.65;;;;;;;;;;5033452;28;20045;-64
2022/07/28 05:25:13;;;;;;;6.82;3.35;;;12.30;99.90;;;;;;5034449;28;20045;-63
2022/07/28 05:27:38;;;;;;;6.80;2.83;;;12.30;99.90;;;;;;5034264;28;20048;-63
2022/07/28 05:30:05;;;;;;;6.57;2.85;;;12.40;99.90;;;;;;5051443;28;20037;-64
2022/07/28 05:32:30;;;;;;;6.05;3.15;;;12.60;99.90;;;;;;5034460;28;20470;-63
2022/07/28 05:34:58;;;;;;;5.82;3.10;;;12.80;99.90;;;;;;5034165;28;20056;-64
2022/07/28 05:37:24;;;;;;;6.13;2.97;;;12.70;99.90;;;;;;5051085;28;20494;-64
2022/07/28 05:39:49;;;;;;;8.55;3.08;;;12.80;99.90;;;;;;5052185;28;20134;-64
2022/07/28 05:42:15;;;;;;;5.82;2.67;;;12.80;99.90;;;;;;5052442;28;20115;-64
2022/07/28 05:44:40;;;;;;;7.97;3.03;;;12.90;99.90;;;;;;5033196;28;20041;-64
2022/07/28 05:47:06;;;;;;;5.60;3.03;;;13.00;99.90;;;;;;5051968;28;20044;-64
2022/07/28 05:49:32;;;;;;;6.82;2.88;;;13.10;99.90;;;;;;5034063;28;20041;-64
2022/07/28 05:51:58;;;;;;;6.85;3.08;;;13.20;99.90;;;;;;5033047;28;20052;-63
2022/07/28 05:54:24;;;;;;;8.65;2.70;;;13.30;99.90;;;;;;5050916;28;20398;-64
2022/07/28 05:56:49;;;;;;;13.02;3.60;;;13.40;99.90;;;;;;5051501;28;20032;-64
2022/07/28 05:59:15;;;;;;;8.50;3.35;;;13.50;99.90;;;;;;5032196;28;20044;-64
2022/07/28 06:01:41;;;;;;;8.55;2.65;;;14.00;99.90;;;;;;5042028;28;20498;-64
2022/07/28 06:04:07;;;;;;;7.05;2.78;;;13.70;99.90;;;;;;5067128;28;20072;-64
2022/07/28 06:06:32;;;;;;;8.32;2.67;;;13.90;99.90;;;;;;5072285;28;20413;-64
2022/07/28 06:08:58;;;;;;;8.63;2.80;;;13.90;99.90;;;;;;5068186;28;20087;-63
2022/07/28 06:11:23;;;;;;;10.75;3.13;;;14.00;99.90;;;;;;5052914;28;20033;-64
2022/07/28 06:13:50;;;;;;;7.50;3.22;;;;;;;;;;5052324;28;20120;-64
2022/07/28 06:16:19;;;;;;;9.73;3.15;;;;;;;;;;5048512;28;20045;-64
2022/07/28 06:18:46;;;;;;;6.18;3.05;;;;;;;;;;5033912;28;20524;-64
2022/07/28 06:21:13;;;;;;;5.95;3.47;;;;;;;;;;5035263;28;20092;-64
2022/07/28 06:23:38;;;;;;;10.75;2.85;;;15.40;99.90;;;;;;5052844;28;20049;-64
2022/07/28 06:26:04;;;;;;;5.07;2.60;;;14.70;99.90;;;;;;5032358;28;20051;-64
2022/07/28 06:28:31;;;;;;;5.53;2.97;;;14.70;99.90;;;;;;5052268;28;20120;-64
2022/07/28 06:30:56;;;;;;;6.60;2.72;;;14.80;99.90;;;;;;5027329;28;20049;-64
2022/07/28 06:33:22;;;;;;;5.40;2.30;;;14.90;99.90;;;;;;5032999;28;20052;-64
2022/07/28 06:35:48;;;;;;;6.32;2.50;;;15.10;99.90;;;;;;5049225;28;20036;-65
2022/07/28 06:38:14;;;;;;;5.07;2.38;;;15.20;99.90;;;;;;5019095;28;20075;-64
2022/07/28 06:40:42;;;;;;;6.50;2.30;;;17.40;99.90;;;;;;5052314;28;20073;-64
2022/07/28 06:43:07;;;;;;;8.68;2.30;;;15.60;99.90;;;;;;5059376;28;20037;-64
2022/07/28 06:45:33;;;;;;;5.22;1.70;;;15.10;99.90;;;;;;5035485;28;20098;-65
2022/07/28 06:47:59;;;;;;;5.30;2.17;;;15.50;99.90;;;;;;5052478;28;20044;-64
2022/07/28 06:50:25;;;;;;;4.47;1.85;;;16.00;99.90;;;;;;5052525;28;20053;-64
2022/07/28 06:52:50;;;;;;;6.13;2.08;;;15.20;99.90;;;;;;5026140;28;20760;-64
2022/07/28 06:55:16;;;;;;;7.55;2.42;;;15.30;99.90;;;;;;5029510;28;20047;-64
2022/07/28 06:57:42;;;;;;;6.05;2.13;;;15.60;99.90;;;;;;5052395;28;20036;-64
2022/07/28 07:00:11;;;;;;;5.32;2.10;;;15.80;99.90;;;;;;5052285;28;20045;-64
2022/07/28 07:02:39;;;;;;;6.03;2.05;;;15.70;99.90;;;;;;5033752;28;20102;-64
2022/07/28 07:05:05;;;;;;;5.75;2.15;;;15.90;99.90;;;;;;5034453;28;20102;-64
2022/07/28 07:07:31;;;;;;;6.10;2.75;;;15.70;99.90;;;;;;5052267;28;20747;-64
2022/07/28 07:09:56;;;;;;;5.97;2.13;;;15.60;99.90;;;;;;5032838;28;20110;-64
2022/07/28 07:12:22;;;;;;;4.18;1.58;;;16.10;99.90;;;;;;5052180;28;20441;-64
2022/07/28 07:14:48;;;;;;;5.88;2.17;;;15.80;99.90;;;;;;5033848;28;20512;-64
2022/07/28 07:17:13;;;;;;;8.30;2.78;;;15.80;99.90;;;;;;5033467;28;20053;-64
2022/07/28 07:19:39;;;;;;;7.43;2.42;;;15.80;99.90;;;;;;5051605;28;20544;-64
2022/07/28 07:22:04;;;;;;;4.45;1.70;;;16.10;99.90;;;;;;5051358;28;20482;-64
2022/07/28 07:24:30;;;;;;;5.80;2.38;;;15.80;99.90;;;;;;5033679;28;20045;-65
2022/07/28 07:26:56;;;;;;;7.50;2.08;;;15.80;99.90;;;;;;5032376;28;20103;-64
2022/07/28 07:29:22;;;;;;;7.72;1.90;;;15.90;99.90;;;;;;5051240;28;20040;-64
2022/07/28 07:31:48;;;;;;;6.05;2.25;;;15.90;99.90;;;;;;5051939;28;20049;-64
2022/07/28 07:34:15;;;;;;;7.45;1.42;;;16.00;99.90;;;;;;5033834;28;20047;-64
2022/07/28 07:36:40;;;;;;;5.38;1.70;;;16.10;99.90;;;;;;5027961;28;20111;-64
2022/07/28 07:39:06;;;;;;;5.35;1.73;;;16.10;99.90;;;;;;5033411;28;20045;-64
2022/07/28 07:41:32;;;;;;;6.60;2.60;;;16.20;99.90;;;;;;5051677;28;20112;-64
2022/07/28 07:43:57;;;;;;;10.27;2.30;;;16.10;99.90;;;;;;5045850;28;20536;-64
2022/07/28 07:46:23;;;;;;;5.32;1.90;;;16.10;99.90;;;;;;5039045;28;20446;-64
2022/07/28 07:48:49;;;;;;;5.00;2.00;;;16.10;99.90;;;;;;5033082;28;20032;-64
2022/07/28 07:51:14;;;;;;;6.70;2.15;;;16.10;99.90;;;;;;5033162;28;20099;-64
2022/07/28 07:53:40;;;;;;;6.47;1.60;;;16.10;99.90;;;;;;5009715;28;20041;-65
2022/07/28 07:56:06;;;;;;;5.82;1.60;;;16.10;99.90;;;;;;5030900;28;20545;-64
2022/07/28 07:58:31;;;;;;;4.07;1.70;;;16.20;99.90;;;;;;5030933;28;20041;-64
2022/07/28 08:00:57;;;;;;;6.13;1.75;;;;;;;;;;5031212;28;20754;-65
2022/07/28 08:03:23;;;;;;;3.20;1.27;;;16.10;99.90;;;;;;5036850;28;20045;-64
2022/07/28 08:05:50;;;;;;;5.18;1.48;;;15.90;99.90;;;;;;5029007;28;20042;-65
2022/07/28 08:08:16;;;;;;;5.50;1.90;;;16.00;99.90;;;;;;5007913;28;20561;-65
2022/07/28 08:10:41;;;;;;;7.38;1.90;;;16.20;99.90;;;;;;5029835;28;20045;-65
2022/07/28 08:13:07;;;;;;;4.97;1.35;;;16.30;99.90;;;;;;5019933;28;20052;-65
2022/07/28 08:15:33;;;;;;;7.68;1.20;;;;;;;;;;5050742;28;20086;-65
2022/07/28 08:18:03;;;;;;;3.45;1.30;;;;;;;;;;5051151;28;20041;-65
2022/07/28 08:20:29;;;;;;;4.30;1.35;;;;;;;;;;5050279;28;20067;-65
2022/07/28 08:22:56;;;;;;;3.88;1.38;;;17.20;99.90;;;;;;5051368;28;20076;-65
2022/07/28 08:25:23;;;;;;;4.15;1.30;;;17.60;99.90;;;;;;5031554;28;20045;-66
2022/07/28 08:27:49;;;;;;;3.33;1.20;;;17.60;99.90;;;;;;5049694;28;20106;-65
2022/07/28 08:30:15;;;;;;;5.40;1.30;;;17.70;99.90;;;;;;5016832;28;20041;-65
2022/07/28 08:32:41;;;;;;;3.42;1.00;;;18.00;99.90;;;;;;5032070;28;20037;-65
2022/07/28 08:35:08;;;;;;;3.13;1.00;;;17.90;99.90;;;;;;5033174;28;20066;-64
2022/07/28 08:37:34;;;;;;;3.63;1.00;;;17.90;99.90;;;;;;5032366;28;20052;-65
2022/07/28 08:39:59;;;;;;;4.30;1.20;;;18.10;99.90;;;;;;5031883;28;20045;-65
2022/07/28 08:42:37;;;;;;;3.70;1.40;;;17.60;99.90;;;;;;5024083;28;20037;-64
2022/07/28 08:45:05;;;;;;;5.22;1.15;;;17.60;99.90;;;;;;5032419;28;20522;-63
2022/07/28 08:47:33;;;;;;;3.28;1.00;;;17.90;99.90;;;;;;5037786;28;20485;-63
2022/07/28 08:50:00;;;;;;;2.97;1.02;;;18.10;99.90;;;;;;5049141;28;20075;-64
2022/07/28 08:52:30;;;;;;;3.70;1.15;;;18.30;99.90;;;;;;5030753;28;20077;-65
2022/07/28 08:54:57;;;;;;;3.53;1.13;;;;;;;;;;5023520;28;20041;-64
2022/07/28 08:57:29;;;;;;;3.45;1.20;;;18.10;99.90;;;;;;5044755;28;20049;-64
2022/07/28 08:59:56;;;;;;;3.00;1.27;;;18.40;99.90;;;;;;5058088;28;20041;-63
2022/07/28 09:02:25;;;;;;;5.95;1.25;;;18.50;99.90;;;;;;5043386;28;20056;-64
2022/07/28 09:04:53;;;;;;;2.55;0.98;;;18.00;99.90;;;;;;5032321;28;20060;-63
2022/07/28 09:07:19;;;;;;;3.92;1.40;;;18.50;99.90;;;;;;5029115;28;20120;-63
2022/07/28 09:09:47;;;;;;;5.30;1.60;;;18.40;99.90;;;;;;5043841;28;20132;-63
2022/07/28 09:12:13;;;;;;;4.28;1.40;;;18.40;99.90;;;;;;5032064;28;20045;-63
2022/07/28 09:14:38;;;;;;;4.15;1.45;;;18.60;99.90;;;;;;5031554;28;20444;-64
2022/07/28 09:17:04;;;;;;;6.38;1.80;;;18.70;99.90;;;;;;5049801;28;21077;-64
2022/07/28 09:19:30;;;;;;;6.40;1.90;;;18.70;99.90;;;;;;5050368;28;20201;-66
2022/07/28 09:21:56;;;;;;;5.50;2.03;;;18.70;99.90;;;;;;5033760;28;20041;-65
2022/07/28 09:24:35;;;;;;;5.55;1.50;;;18.60;99.90;;;;;;5051903;28;20037;-67
2022/07/28 09:27:06;;;;;;;6.15;1.40;;;18.50;99.90;;;;;;5018378;28;20045;-67
2022/07/28 09:29:32;;;;;;;3.90;1.50;;;18.60;99.90;;;;;;5032713;28;20075;-67
2022/07/28 09:31:58;;;;;;;5.85;1.35;;;18.60;99.90;;;;;;5052179;28;20037;-67
2022/07/28 09:34:24;;;;;;;2.92;1.10;;;;;;;;;;5034502;28;20041;-68
2022/07/28 09:36:50;;;;;;;6.53;1.13;;;18.90;99.90;;;;;;5031063;28;20045;-67
2022/07/28 09:39:33;;;;;;;2.42;0.90;;;18.90;99.90;;;;;;5052637;28;20174;-68
2022/07/28 09:41:59;;;;;;;5.10;1.52;;;19.50;99.90;;;;;;5052048;28;20076;-67
2022/07/28 09:44:26;;;;;;;6.90;1.60;;;18.90;99.90;;;;;;5033248;28;20076;-67
2022/07/28 09:46:53;;;;;;;4.88;1.40;;;18.40;99.90;;;;;;5034064;28;20086;-67
2022/07/28 09:49:19;;;;;;;4.55;1.38;;;18.80;99.90;;;;;;5034579;28;20446;-68
2022/07/28 09:52:10;;;;;;;4.38;1.08;;;18.00;99.90;;;;;;5029462;28;20117;-69
2022/07/28 09:54:37;;;;;;;2.40;0.82;;;18.00;99.90;;;;;;5030268;28;20126;-69
2022/07/28 09:57:09;;;;;;;2.67;1.05;;;18.20;99.90;;;;;;5016717;28;20127;-69
2022/07/28 09:59:42;;;;;;;1.80;0.60;;;18.50;99.90;;;;;;5034124;28;20436;-68
2022/07/28 10:02:08;;;;;;;3.35;0.90;;;18.20;99.90;;;;;;5034489;28;20390;-68
2022/07/28 10:04:39;;;;;;;4.18;0.93;;;17.90;99.90;;;;;;5051086;28;20041;-68
2022/07/28 10:07:12;;;;;;;3.70;1.05;;;18.20;99.90;;;;;;5033964;28;20060;-67
2022/07/28 10:09:39;;;;;;;2.72;1.33;;;18.30;99.90;;;;;;5034144;28;20401;-66
2022/07/28 10:12:23;;;;;;;3.58;1.17;;;18.40;99.90;;;;;;5050906;28;20045;-65
2022/07/28 10:14:54;;;;;;;2.25;1.00;;;18.40;99.90;;;;;;5033763;28;20052;-65
2022/07/28 10:17:28;;;;;;;2.75;1.13;;;18.70;99.90;;;;;;5034385;28;20048;-65
2022/07/28 10:19:57;;;;;;;3.37;1.47;;;19.80;99.90;;;;;;5012279;28;20061;-65
2022/07/28 10:22:30;;;;;;;2.80;1.17;;;19.00;99.90;;;;;;4996797;28;20527;-65
2022/07/28 10:24:57;;;;;;;4.25;0.95;;;;;;;;;;5027943;28;20049;-65
2022/07/28 10:27:24;;;;;;;5.53;1.27;;;;;;;;;;5030476;28;20180;-64
2022/07/28 10:29:54;;;;;;;2.13;1.00;;;;;;;;;;4999677;28;20038;-64
2022/07/28 10:32:20;;;;;;;2.67;1.10;;;;;;;;;;4997301;28;20034;-64
2022/07/28 10:35:05;;;;;;;4.55;1.27;;;19.80;99.50;;;;;;5028484;28;20045;-64
2022/07/28 10:37:34;;;;;;;4.18;1.73;;;19.80;99.80;;;;;;5030784;28;20057;-64
2022/07/28 10:40:04;;;;;;;4.75;1.02;;;19.90;99.40;;;;;;5004306;28;20046;-64
2022/07/28 10:42:31;;;;;;;4.22;1.10;;;19.90;98.70;;;;;;5003995;28;20384;-64
2022/07/28 10:44:57;;;;;;;3.20;1.23;;;19.70;97.60;;;;;;5012706;28;20041;-64
2022/07/28 10:47:25;;;;;;;3.05;0.80;;;19.50;98.10;;;;;;5009947;28;20057;-64
2022/07/28 10:49:51;;;;;;;3.17;0.90;;;19.30;97.80;;;;;;5006043;28;20034;-64
2022/07/28 10:52:18;;;;;;;2.67;1.00;;;19.10;98.50;;;;;;5003034;28;20107;-64
2022/07/28 10:55:04;;;;;;;3.63;1.27;;;;;;;;;;5015597;28;20034;-64
2022/07/28 10:57:33;;;;;;;2.40;0.88;;;;;;;;;;5015316;28;20056;-64
2022/07/28 11:00:08;;;;;;;1.90;0.85;;;;;;;;;;5017185;28;20038;-64
2022/07/28 11:02:49;;;;;;;2.33;0.85;;;;;;;;;;5033715;28;20041;-64
2022/07/28 11:05:26;;;;;;;3.55;0.85;;;;;;;;;;5021400;28;20495;-64
2022/07/28 11:07:54;;;;;;;3.20;1.38;;;;;;;;;;5031522;28;20122;-64
2022/07/28 11:10:23;;;;;;;2.60;0.80;;;;;;;;;;5033513;28;20490;-64
2022/07/28 11:12:59;;;;;;;3.95;1.20;;;;;;;;;;5033316;28;20080;-64
2022/07/28 11:15:37;;;;;;;5.72;1.10;;;;;;;;;;5021589;28;20502;-64
2022/07/28 11:18:08;;;;;;;1.63;0.80;;;;;;;;;;5015876;28;20909;-64
2022/07/28 11:20:55;;;;;;;2.55;0.85;;;;;;;;;;5027109;28;20057;-64
2022/07/28 11:23:41;;;;;;;2.95;1.42;;;18.50;99.90;;;;;;5043851;28;20045;-64
2022/07/28 11:26:19;;;;;;;3.17;1.27;;;18.80;99.90;;;;;;5049704;28;20094;-64
2022/07/28 11:29:09;;;;;;;3.47;1.00;;;18.90;99.90;;;;;;5036077;28;20444;-64
2022/07/28 11:31:45;;;;;;;3.13;0.98;;;19.20;99.90;;;;;;5050997;28;20055;-64
2022/07/28 11:34:12;;;;;;;6.57;1.05;;;19.10;99.90;;;;;;5053966;28;20036;-64
2022/07/28 11:37:01;;;;;;;7.00;1.63;;;19.00;99.90;;;;;;5032465;28;20045;-65
2022/07/28 11:39:41;;;;;;;3.88;1.42;;;19.00;99.90;;;;;;5018336;28;20406;-67
2022/07/28 11:42:28;;;;;;;5.53;1.20;;;18.90;99.90;;;;;;5018546;28;20076;-67
2022/07/28 11:44:55;;;;;;;3.00;0.90;;;18.90;99.90;;;;;;5016749;28;20032;-66
2022/07/28 11:47:24;;;;;;;1.73;0.77;;;19.00;99.90;;;;;;5042137;28;20102;-66
2022/07/28 11:50:10;;;;;;;1.75;0.82;;;18.90;99.90;;;;;;5050064;28;20033;-66
2022/07/28 11:52:36;;;;;;;3.00;1.30;;;19.10;99.90;;;;;;5040213;28;20037;-66
2022/07/28 11:55:03;;;;;;;4.32;1.20;;;18.90;99.90;;;;;;5016324;28;20107;-66
2022/07/28 11:57:28;;;;;;;3.97;1.05;;;18.90;99.90;;;;;;5016653;28;20040;-66
2022/07/28 11:59:56;;;;;;;3.17;1.05;;;18.80;99.90;;;;;;5022837;28;20461;-66
2022/07/28 12:02:25;;;;;;;3.15;1.20;;;18.90;99.90;;;;;;5033638;28;20445;-66
2022/07/28 12:04:56;;;;;;;2.40;0.90;;;18.90;99.90;;;;;;5019043;28;20041;-66
2022/07/28 12:07:35;;;;;;;3.55;1.10;;;18.90;99.90;;;;;;5048687;28;20042;-65
2022/07/28 12:10:25;;;;;;;2.85;0.95;;;18.80;99.90;;;;;;5040186;28;20068;-62
2022/07/28 12:12:51;;;;;;;3.33;0.80;;;18.70;99.90;;;;;;5036408;28;20390;-63
2022/07/28 12:15:18;;;;;;;2.55;1.02;;;18.80;99.90;;;;;;5053957;28;20084;-63
2022/07/28 12:17:45;;;;;;;2.45;0.90;;;18.80;99.90;;;;;;5029382;28;20103;-63
2022/07/28 12:20:12;;;;;;;4.50;1.10;;;18.90;99.90;;;;;;5040977;28;20064;-63
2022/07/28 12:22:38;;;;;;;1.65;0.65;;;19.00;99.90;;;;;;5042855;28;20064;-63
2022/07/28 12:25:03;;;;;;;3.53;1.00;;;19.00;99.90;;;;;;5032597;28;20049;-63
2022/07/28 12:27:29;;;;;;;2.17;0.85;;;19.00;99.90;;;;;;5056483;28;20036;-63
2022/07/28 12:30:00;;;;;;;1.42;0.60;;;19.00;99.90;;;;;;5054227;28;20040;-63
2022/07/28 12:32:31;;;;;;;2.25;0.70;;;;;;;;;;5055098;28;20630;-62
2022/07/28 12:34:57;;;;;;;2.55;1.00;;;19.00;99.90;;;;;;5061796;28;20048;-63
2022/07/28 12:37:23;;;;;;;1.90;0.63;;;19.00;99.90;;;;;;5037797;28;20119;-63
2022/07/28 12:39:52;;;;;;;2.60;1.00;;;19.50;99.90;;;;;;5051365;28;20036;-63
2022/07/28 12:42:18;;;;;;;2.55;0.85;;;19.00;99.90;;;;;;5050747;28;20048;-62
2022/07/28 12:44:46;;;;;;;3.78;1.00;;;18.80;99.90;;;;;;5032765;28;20052;-62
2022/07/28 12:47:14;;;;;;;4.25;0.80;;;18.80;99.90;;;;;;5042355;28;20489;-62
2022/07/28 12:49:42;;;;;;;3.65;0.95;;;18.80;99.90;;;;;;5061358;28;20044;-62
2022/07/28 12:52:19;;;;;;;1.85;0.95;;;18.70;99.90;;;;;;5056344;28;20508;-63
2022/07/28 12:54:45;;;;;;;3.88;1.00;;;18.70;99.90;;;;;;5038606;28;20036;-63
2022/07/28 12:57:11;;;;;;;2.40;1.00;;;18.60;99.90;;;;;;5029421;28;20116;-63
2022/07/28 12:59:38;;;;;;;2.85;0.90;;;18.60;99.90;;;;;;5040578;28;20068;-63
2022/07/28 13:02:08;;;;;;;3.40;0.98;;;18.60;99.90;;;;;;5058933;28;20127;-63
2022/07/28 13:04:43;;;;;;;3.83;0.93;;;18.60;99.90;;;;;;5042245;28;20702;-65
2022/07/28 13:07:19;;;;;;;1.75;0.90;;;18.90;99.90;;;;;;5051878;28;20047;-65
2022/07/28 13:09:48;;;;;;;1.88;0.80;;;18.90;99.90;;;;;;5033838;28;20037;-66
2022/07/28 13:12:14;;;;;;;4.00;1.00;;;18.90;99.90;;;;;;5051495;28;20073;-65
2022/07/28 13:14:44;;;;;;;4.28;1.13;;;19.10;99.90;;;;;;5048658;28;20076;-66
2022/07/28 13:17:11;;;;;;;3.00;1.20;;;19.00;99.90;;;;;;5044544;28;20045;-67
2022/07/28 13:19:37;;;;;;;3.30;0.98;;;18.90;99.90;;;;;;5025796;28;20057;-65
2022/07/28 13:22:02;;;;;;;1.63;0.88;;;19.00;99.90;;;;;;5046881;28;20084;-67
2022/07/28 13:24:29;;;;;;;4.10;1.02;;;19.40;99.90;;;;;;5056538;28;20124;-67
2022/07/28 13:26:57;;;;;;;3.50;0.90;;;18.90;99.90;;;;;;5045710;28;20044;-67